createdAt,value
2017-12-30T00:00:09.700Z,86.57
2017-12-30T00:01:16.496Z,86.60
2017-12-30T00:02:23.256Z,86.58
2017-12-30T00:03:30.016Z,86.60
2017-12-30T00:04:36.748Z,86.59
2017-12-30T00:05:43.481Z,86.62
2017-12-30T00:06:50.220Z,86.63
2017-12-30T00:07:57.033Z,86.67
2017-12-30T00:09:03.759Z,86.65
2017-12-30T00:10:10.480Z,86.65
2017-12-30T00:11:17.248Z,86.62
2017-12-30T00:12:23.971Z,86.55
2017-12-30T00:13:30.773Z,86.56
2017-12-30T00:14:37.543Z,86.52
2017-12-30T00:15:44.277Z,86.54
2017-12-30T00:16:51.040Z,86.51
2017-12-30T00:17:57.948Z,86.50
2017-12-30T00:19:04.672Z,86.48
2017-12-30T00:20:11.490Z,86.49
2017-12-30T00:21:18.284Z,86.48
2017-12-30T00:22:25.016Z,86.47
2017-12-30T00:23:31.748Z,86.45
2017-12-30T00:24:38.454Z,86.50
2017-12-30T00:25:45.257Z,86.46
2017-12-30T00:26:51.987Z,86.46
2017-12-30T00:27:58.787Z,86.45
2017-12-30T00:29:05.536Z,86.49
2017-12-30T00:30:12.275Z,86.52
2017-12-30T00:31:24.320Z,86.51
2017-12-30T00:32:31.145Z,86.51
2017-12-30T00:33:33.076Z,86.52
2017-12-30T00:34:39.797Z,86.53
2017-12-30T00:35:46.507Z,86.55
2017-12-30T00:36:53.291Z,86.55
2017-12-30T00:38:00.215Z,86.54
2017-12-30T00:39:07.099Z,86.56
2017-12-30T00:40:13.840Z,86.54
2017-12-30T00:41:20.556Z,86.57
2017-12-30T00:42:27.297Z,86.56
2017-12-30T00:43:34.003Z,86.61
2017-12-30T00:44:40.852Z,86.61
2017-12-30T00:45:47.567Z,86.64
2017-12-30T00:46:54.271Z,86.65
2017-12-30T00:48:01.013Z,86.65
2017-12-30T00:49:07.759Z,86.70
2017-12-30T00:50:14.581Z,86.71
2017-12-30T00:51:21.289Z,86.76
2017-12-30T00:52:28.103Z,86.78
2017-12-30T00:53:34.811Z,86.76
2017-12-30T00:54:41.700Z,86.77
2017-12-30T00:55:48.468Z,86.78
2017-12-30T00:56:55.264Z,86.79
2017-12-30T00:58:02.108Z,86.80
2017-12-30T00:59:08.868Z,86.83
2017-12-30T01:00:15.668Z,86.83
2017-12-30T01:01:22.555Z,86.83
2017-12-30T01:02:29.287Z,86.88
2017-12-30T01:03:36.073Z,86.89
2017-12-30T01:04:42.836Z,86.92
2017-12-30T01:05:49.660Z,86.90
2017-12-30T01:06:56.445Z,86.91
2017-12-30T01:08:03.431Z,86.91
2017-12-30T01:09:10.178Z,86.96
2017-12-30T01:10:16.965Z,86.92
2017-12-30T01:11:23.727Z,86.96
2017-12-30T01:12:30.521Z,86.99
2017-12-30T01:13:37.357Z,86.99
2017-12-30T01:14:44.143Z,86.97
2017-12-30T01:15:50.979Z,87.04
2017-12-30T01:16:57.755Z,87.07
2017-12-30T01:18:04.533Z,87.06
2017-12-30T01:19:11.406Z,87.11
2017-12-30T01:20:18.205Z,87.12
2017-12-30T01:21:25.000Z,87.14
2017-12-30T01:22:31.860Z,87.16
2017-12-30T01:23:38.649Z,87.18
2017-12-30T01:24:45.411Z,87.21
2017-12-30T01:25:52.332Z,87.26
2017-12-30T01:26:59.153Z,87.27
2017-12-30T01:28:05.929Z,87.29
2017-12-30T01:29:12.747Z,87.31
2017-12-30T01:30:19.649Z,87.33
2017-12-30T01:31:26.672Z,87.36
2017-12-30T01:32:33.433Z,87.37
2017-12-30T01:33:40.200Z,87.43
2017-12-30T01:34:47.013Z,87.45
2017-12-30T01:35:53.806Z,87.49
2017-12-30T01:37:00.602Z,87.52
2017-12-30T01:38:07.424Z,87.56
2017-12-30T01:39:14.450Z,87.54
2017-12-30T01:40:21.287Z,87.57
2017-12-30T01:41:28.129Z,87.61
2017-12-30T01:42:34.891Z,87.60
2017-12-30T01:43:41.684Z,87.63
2017-12-30T01:44:48.471Z,87.64
2017-12-30T01:45:55.266Z,87.67
2017-12-30T01:47:02.185Z,87.68
2017-12-30T01:48:09.191Z,87.70
2017-12-30T01:49:15.989Z,87.76
2017-12-30T01:50:22.791Z,87.75
2017-12-30T01:51:29.604Z,87.76
2017-12-30T01:52:36.471Z,87.79
2017-12-30T01:53:43.243Z,87.82
2017-12-30T01:54:50.050Z,87.83
2017-12-30T01:55:56.924Z,87.86
2017-12-30T01:57:03.723Z,87.86
2017-12-30T01:58:10.548Z,87.91
2017-12-30T01:59:17.365Z,87.92
2017-12-30T02:00:24.167Z,87.95
2017-12-30T02:01:30.975Z,87.96
2017-12-30T02:02:37.811Z,87.97
2017-12-30T02:03:44.629Z,88.01
2017-12-30T02:04:51.469Z,88.02
2017-12-30T02:05:58.249Z,88.05
2017-12-30T02:07:05.044Z,88.07
2017-12-30T02:08:11.836Z,88.06
2017-12-30T02:09:18.693Z,88.09
2017-12-30T02:10:25.496Z,88.10
2017-12-30T02:11:32.376Z,88.12
2017-12-30T02:12:39.184Z,88.15
2017-12-30T02:13:45.977Z,88.16
2017-12-30T02:14:52.748Z,88.17
2017-12-30T02:15:59.502Z,88.18
2017-12-30T02:17:06.296Z,88.20
2017-12-30T02:18:13.049Z,88.20
2017-12-30T02:19:19.764Z,88.22
2017-12-30T02:20:26.516Z,88.25
2017-12-30T02:21:33.373Z,88.28
2017-12-30T02:22:40.196Z,88.29
2017-12-30T02:23:46.951Z,88.29
2017-12-30T02:24:53.677Z,88.31
2017-12-30T02:26:00.444Z,88.36
2017-12-30T02:27:07.173Z,88.36
2017-12-30T02:28:13.933Z,88.35
2017-12-30T02:29:20.695Z,88.37
2017-12-30T02:30:27.528Z,88.38
2017-12-30T02:31:34.266Z,88.40
2017-12-30T02:32:41.028Z,88.43
2017-12-30T02:33:47.779Z,88.45
2017-12-30T02:34:54.627Z,88.46
2017-12-30T02:36:01.372Z,88.47
2017-12-30T02:37:08.236Z,88.47
2017-12-30T02:38:15.092Z,88.48
2017-12-30T02:39:21.825Z,88.51
2017-12-30T02:40:28.561Z,88.52
2017-12-30T02:41:35.312Z,88.53
2017-12-30T02:42:42.156Z,88.54
2017-12-30T02:43:48.899Z,88.52
2017-12-30T02:44:55.663Z,88.55
2017-12-30T02:46:02.446Z,88.54
2017-12-30T02:47:09.116Z,88.58
2017-12-30T02:48:15.916Z,88.60
2017-12-30T02:49:22.672Z,88.59
2017-12-30T02:50:29.491Z,88.62
2017-12-30T02:51:36.341Z,88.64
2017-12-30T02:52:43.081Z,88.66
2017-12-30T02:53:49.861Z,88.66
2017-12-30T02:54:56.604Z,88.71
2017-12-30T02:56:03.429Z,88.72
2017-12-30T02:57:10.180Z,88.71
2017-12-30T02:58:16.925Z,88.73
2017-12-30T02:59:23.683Z,88.73
2017-12-30T03:00:30.599Z,88.73
2017-12-30T03:01:37.313Z,88.75
2017-12-30T03:02:44.075Z,88.81
2017-12-30T03:03:50.828Z,88.79
2017-12-30T03:04:57.644Z,88.79
2017-12-30T03:06:04.478Z,88.84
2017-12-30T03:07:11.407Z,88.83
2017-12-30T03:08:18.170Z,88.81
2017-12-30T03:09:24.973Z,88.84
2017-12-30T03:10:31.746Z,88.84
2017-12-30T03:11:38.507Z,88.85
2017-12-30T03:12:45.392Z,88.86
2017-12-30T03:13:52.129Z,88.86
2017-12-30T03:14:58.992Z,88.86
2017-12-30T03:16:05.752Z,88.88
2017-12-30T03:17:12.552Z,88.90
2017-12-30T03:18:19.405Z,88.95
2017-12-30T03:19:26.191Z,88.94
2017-12-30T03:20:32.987Z,88.96
2017-12-30T03:21:39.857Z,88.93
2017-12-30T03:22:46.632Z,88.93
2017-12-30T03:23:53.400Z,88.92
2017-12-30T03:25:00.283Z,88.91
2017-12-30T03:26:07.082Z,88.91
2017-12-30T03:27:13.858Z,88.92
2017-12-30T03:28:20.757Z,88.87
2017-12-30T03:29:27.574Z,88.88
2017-12-30T03:30:34.356Z,88.90
2017-12-30T03:31:41.196Z,88.92
2017-12-30T03:32:48.000Z,88.87
2017-12-30T03:33:54.778Z,88.85
2017-12-30T03:35:01.632Z,88.84
2017-12-30T03:36:08.444Z,88.85
2017-12-30T03:37:15.237Z,88.85
2017-12-30T03:38:22.056Z,88.83
2017-12-30T03:39:28.827Z,88.83
2017-12-30T03:40:35.632Z,88.83
2017-12-30T03:41:42.532Z,88.84
2017-12-30T03:42:49.547Z,88.84
2017-12-30T03:43:56.348Z,88.85
2017-12-30T03:45:03.169Z,88.87
2017-12-30T03:46:09.964Z,88.87
2017-12-30T03:47:16.812Z,88.91
2017-12-30T03:48:23.593Z,88.90
2017-12-30T03:49:30.389Z,88.93
2017-12-30T03:50:37.269Z,88.94
2017-12-30T03:51:44.078Z,88.92
2017-12-30T03:52:50.914Z,88.96
2017-12-30T03:53:57.708Z,88.96
2017-12-30T03:55:04.533Z,88.99
2017-12-30T03:56:11.341Z,89.00
2017-12-30T03:57:18.197Z,88.96
2017-12-30T03:58:25.029Z,88.99
2017-12-30T03:59:31.850Z,89.00
2017-12-30T04:00:38.667Z,88.98
2017-12-30T04:01:45.517Z,89.03
2017-12-30T04:02:52.428Z,89.05
2017-12-30T04:03:59.256Z,89.06
2017-12-30T04:05:06.069Z,89.06
2017-12-30T04:06:12.921Z,89.10
2017-12-30T04:07:19.776Z,89.10
2017-12-30T04:08:26.703Z,89.10
2017-12-30T04:09:33.512Z,89.11
2017-12-30T04:10:40.336Z,89.11
2017-12-30T04:11:47.177Z,89.12
2017-12-30T04:12:54.108Z,89.14
2017-12-30T04:14:01.044Z,89.16
2017-12-30T04:15:07.939Z,89.15
2017-12-30T04:16:14.764Z,89.17
2017-12-30T04:17:21.670Z,89.20
2017-12-30T04:18:28.592Z,89.21
2017-12-30T04:19:35.410Z,89.22
2017-12-30T04:20:42.124Z,89.24
2017-12-30T04:21:48.863Z,89.21
2017-12-30T04:22:55.680Z,89.25
2017-12-30T04:24:02.408Z,89.25
2017-12-30T04:25:09.152Z,89.31
2017-12-30T04:26:15.879Z,89.31
2017-12-30T04:27:23.512Z,89.31
2017-12-30T04:28:29.775Z,89.31
2017-12-30T04:29:36.561Z,89.32
2017-12-30T04:30:43.280Z,89.36
2017-12-30T04:31:50.112Z,89.38
2017-12-30T04:32:56.832Z,89.37
2017-12-30T04:34:03.701Z,89.38
2017-12-30T04:35:10.464Z,89.40
2017-12-30T04:36:17.192Z,89.40
2017-12-30T04:37:23.974Z,89.44
2017-12-30T04:38:30.808Z,89.45
2017-12-30T04:39:37.556Z,89.46
2017-12-30T04:40:44.339Z,89.49
2017-12-30T04:41:51.152Z,89.47
2017-12-30T04:42:57.920Z,89.50
2017-12-30T04:44:04.676Z,89.52
2017-12-30T04:45:11.385Z,89.54
2017-12-30T04:46:18.115Z,89.54
2017-12-30T04:47:24.840Z,89.56
2017-12-30T04:48:31.625Z,89.57
2017-12-30T04:49:38.397Z,89.59
2017-12-30T04:50:45.128Z,89.63
2017-12-30T04:51:51.836Z,89.63
2017-12-30T04:52:58.686Z,89.64
2017-12-30T04:54:05.452Z,89.64
2017-12-30T04:55:12.197Z,89.66
2017-12-30T04:56:18.913Z,89.68
2017-12-30T04:57:25.788Z,89.70
2017-12-30T04:58:32.480Z,89.69
2017-12-30T04:59:39.228Z,89.74
2017-12-30T05:00:45.989Z,89.72
2017-12-30T05:01:52.719Z,89.72
2017-12-30T05:02:59.500Z,89.75
2017-12-30T05:04:06.446Z,89.76
2017-12-30T05:05:13.325Z,89.76
2017-12-30T05:06:20.108Z,89.78
2017-12-30T05:07:26.899Z,89.79
2017-12-30T05:08:33.720Z,89.79
2017-12-30T05:09:40.477Z,89.78
2017-12-30T05:10:47.218Z,89.80
2017-12-30T05:11:53.952Z,89.79
2017-12-30T05:13:00.785Z,89.80
2017-12-30T05:14:07.553Z,89.81
2017-12-30T05:15:14.301Z,89.81
2017-12-30T05:16:21.035Z,89.80
2017-12-30T05:17:27.833Z,89.80
2017-12-30T05:18:34.722Z,89.78
2017-12-30T05:19:41.477Z,89.83
2017-12-30T05:20:48.296Z,89.83
2017-12-30T05:21:55.028Z,89.80
2017-12-30T05:23:01.788Z,89.83
2017-12-30T05:24:08.522Z,89.83
2017-12-30T05:25:15.388Z,89.86
2017-12-30T05:26:22.146Z,89.85
2017-12-30T05:27:28.860Z,89.85
2017-12-30T05:28:35.625Z,89.83
2017-12-30T05:29:42.340Z,89.82
2017-12-30T05:30:49.149Z,89.83
2017-12-30T05:31:55.899Z,89.83
2017-12-30T05:33:02.642Z,89.85
2017-12-30T05:34:09.401Z,89.84
2017-12-30T05:35:16.229Z,89.85
2017-12-30T05:36:22.999Z,89.87
2017-12-30T05:37:29.745Z,89.87
2017-12-30T05:38:36.508Z,89.88
2017-12-30T05:39:43.323Z,89.86
2017-12-30T05:40:50.092Z,89.88
2017-12-30T05:41:56.832Z,89.86
2017-12-30T05:43:03.572Z,89.86
2017-12-30T05:44:10.289Z,89.87
2017-12-30T05:45:17.188Z,89.85
2017-12-30T05:46:23.969Z,89.87
2017-12-30T05:47:30.693Z,89.87
2017-12-30T05:48:37.392Z,89.88
2017-12-30T05:49:44.174Z,89.89
2017-12-30T05:50:50.895Z,89.91
2017-12-30T05:51:57.677Z,89.92
2017-12-30T05:53:04.414Z,89.94
2017-12-30T05:54:11.132Z,89.95
2017-12-30T05:55:17.933Z,89.96
2017-12-30T05:56:24.728Z,89.97
2017-12-30T05:57:31.459Z,89.98
2017-12-30T05:58:38.391Z,90.03
2017-12-30T05:59:45.121Z,90.06
2017-12-30T06:00:51.896Z,90.10
2017-12-30T06:01:58.672Z,90.09
2017-12-30T06:03:05.484Z,90.10
2017-12-30T06:04:17.410Z,90.06
2017-12-30T06:05:19.307Z,90.06
2017-12-30T06:06:26.455Z,90.07
2017-12-30T06:07:33.367Z,90.09
2017-12-30T06:08:40.258Z,90.07
2017-12-30T06:09:47.177Z,90.09
2017-12-30T06:10:54.009Z,90.09
2017-12-30T06:12:00.809Z,90.09
2017-12-30T06:13:07.630Z,90.10
2017-12-30T06:14:14.489Z,90.10
2017-12-30T06:15:21.305Z,90.13
2017-12-30T06:16:28.119Z,90.15
2017-12-30T06:17:34.973Z,90.15
2017-12-30T06:18:41.756Z,90.17
2017-12-30T06:19:48.586Z,90.15
2017-12-30T06:20:55.425Z,90.12
2017-12-30T06:22:02.282Z,90.13
2017-12-30T06:23:09.188Z,90.13
2017-12-30T06:24:16.048Z,90.17
2017-12-30T06:25:22.944Z,90.18
2017-12-30T06:26:29.749Z,90.20
2017-12-30T06:27:36.600Z,90.20
2017-12-30T06:28:43.447Z,90.23
2017-12-30T06:29:50.277Z,90.25
2017-12-30T06:30:57.184Z,90.22
2017-12-30T06:32:03.985Z,90.28
2017-12-30T06:33:10.781Z,90.27
2017-12-30T06:34:17.653Z,90.30
2017-12-30T06:35:24.478Z,90.33
2017-12-30T06:36:31.476Z,90.36
2017-12-30T06:37:38.296Z,90.38
2017-12-30T06:38:45.121Z,90.38
2017-12-30T06:39:52.001Z,90.38
2017-12-30T06:40:58.830Z,90.43
2017-12-30T06:42:05.692Z,90.47
2017-12-30T06:43:12.501Z,90.49
2017-12-30T06:44:19.381Z,90.51
2017-12-30T06:45:26.238Z,90.56
2017-12-30T06:46:33.093Z,90.55
2017-12-30T06:47:39.949Z,90.56
2017-12-30T06:48:46.828Z,90.58
2017-12-30T06:49:53.735Z,90.62
2017-12-30T06:51:00.562Z,90.61
2017-12-30T06:52:07.512Z,90.61
2017-12-30T06:53:14.336Z,90.62
2017-12-30T06:54:21.230Z,90.62
2017-12-30T06:55:28.092Z,90.61
2017-12-30T06:56:34.955Z,90.62
2017-12-30T06:57:41.786Z,90.60
2017-12-30T06:58:48.653Z,90.60
2017-12-30T06:59:55.607Z,90.62
2017-12-30T07:01:02.477Z,90.59
2017-12-30T07:02:09.365Z,90.63
2017-12-30T07:03:16.233Z,90.60
2017-12-30T07:04:23.151Z,90.61
2017-12-30T07:05:29.985Z,90.64
2017-12-30T07:06:36.789Z,90.63
2017-12-30T07:07:43.645Z,90.64
2017-12-30T07:08:50.440Z,90.66
2017-12-30T07:09:57.540Z,90.66
2017-12-30T07:11:04.375Z,90.68
2017-12-30T07:12:11.208Z,90.69
2017-12-30T07:13:18.086Z,90.67
2017-12-30T07:14:25.005Z,90.65
2017-12-30T07:15:31.908Z,90.70
2017-12-30T07:16:38.785Z,90.68
2017-12-30T07:17:45.608Z,90.69
2017-12-30T07:18:52.573Z,90.69
2017-12-30T07:19:59.396Z,90.71
2017-12-30T07:21:06.253Z,90.69
2017-12-30T07:22:13.084Z,90.71
2017-12-30T07:23:19.937Z,90.74
2017-12-30T07:24:26.784Z,90.75
2017-12-30T07:25:33.633Z,90.75
2017-12-30T07:26:40.485Z,90.76
2017-12-30T07:27:47.385Z,90.77
2017-12-30T07:28:54.237Z,90.79
2017-12-30T07:30:01.057Z,90.78
2017-12-30T07:31:07.921Z,90.82
2017-12-30T07:32:14.841Z,90.79
2017-12-30T07:33:21.690Z,90.82
2017-12-30T07:34:28.634Z,90.81
2017-12-30T07:35:35.480Z,90.82
2017-12-30T07:36:42.458Z,90.87
2017-12-30T07:37:49.299Z,90.83
2017-12-30T07:38:56.221Z,90.86
2017-12-30T07:40:03.085Z,90.86
2017-12-30T07:41:10.007Z,90.89
2017-12-30T07:42:16.873Z,90.95
2017-12-30T07:43:23.690Z,91.01
2017-12-30T07:44:30.573Z,91.02
2017-12-30T07:45:37.415Z,91.04
2017-12-30T07:46:44.264Z,91.03
2017-12-30T07:47:51.129Z,91.01
2017-12-30T07:48:58.028Z,91.06
2017-12-30T07:50:04.937Z,91.10
2017-12-30T07:51:11.853Z,91.09
2017-12-30T07:52:18.743Z,91.10
2017-12-30T07:53:25.651Z,91.09
2017-12-30T07:54:32.485Z,91.14
2017-12-30T07:55:39.313Z,91.14
2017-12-30T07:56:46.104Z,91.12
2017-12-30T07:57:52.959Z,91.14
2017-12-30T07:58:59.915Z,91.15
2017-12-30T08:00:06.803Z,91.18
2017-12-30T08:01:13.716Z,91.13
2017-12-30T08:02:20.561Z,91.17
2017-12-30T08:03:27.380Z,91.13
2017-12-30T08:04:34.206Z,91.21
2017-12-30T08:05:41.013Z,91.26
2017-12-30T08:06:47.840Z,91.27
2017-12-30T08:07:54.701Z,91.28
2017-12-30T08:09:01.521Z,91.30
2017-12-30T08:10:08.529Z,91.35
2017-12-30T08:11:15.369Z,91.38
2017-12-30T08:12:22.244Z,91.38
2017-12-30T08:13:29.224Z,91.37
2017-12-30T08:14:36.196Z,91.35
2017-12-30T08:15:43.344Z,91.34
2017-12-30T08:16:50.440Z,91.29
2017-12-30T08:17:57.349Z,91.26
2017-12-30T08:19:04.258Z,91.27
2017-12-30T08:20:11.167Z,91.29
2017-12-30T08:21:17.983Z,91.27
2017-12-30T08:22:24.805Z,91.24
2017-12-30T08:23:31.741Z,91.25
2017-12-30T08:24:38.524Z,91.24
2017-12-30T08:25:45.319Z,91.26
2017-12-30T08:26:52.168Z,91.27
2017-12-30T08:27:58.988Z,91.30
2017-12-30T08:29:05.798Z,91.32
2017-12-30T08:30:12.648Z,91.32
2017-12-30T08:31:19.443Z,91.32
2017-12-30T08:32:26.235Z,91.32
2017-12-30T08:33:33.093Z,91.30
2017-12-30T08:34:39.874Z,91.31
2017-12-30T08:35:46.785Z,91.34
2017-12-30T08:36:53.547Z,91.35
2017-12-30T08:38:00.293Z,91.34
2017-12-30T08:39:07.088Z,91.33
2017-12-30T08:40:14.005Z,91.33
2017-12-30T08:41:20.781Z,91.33
2017-12-30T08:42:27.555Z,91.32
2017-12-30T08:43:34.444Z,91.34
2017-12-30T08:44:41.187Z,91.34
2017-12-30T08:45:47.967Z,91.34
2017-12-30T08:46:54.715Z,91.36
2017-12-30T08:48:01.552Z,91.35
2017-12-30T08:49:08.436Z,91.31
2017-12-30T08:50:15.220Z,91.33
2017-12-30T08:51:22.016Z,91.34
2017-12-30T08:52:28.807Z,91.35
2017-12-30T08:53:35.564Z,91.34
2017-12-30T08:54:42.312Z,91.35
2017-12-30T08:55:49.103Z,91.38
2017-12-30T08:56:55.857Z,91.37
2017-12-30T08:58:02.628Z,91.39
2017-12-30T08:59:09.404Z,91.37
2017-12-30T09:00:16.228Z,91.41
2017-12-30T09:01:22.989Z,91.42
2017-12-30T09:02:29.832Z,91.42
2017-12-30T09:03:36.652Z,91.45
2017-12-30T09:04:43.419Z,91.46
2017-12-30T09:05:50.185Z,91.49
2017-12-30T09:06:56.924Z,91.52
2017-12-30T09:08:03.855Z,91.56
2017-12-30T09:09:10.607Z,91.58
2017-12-30T09:10:17.361Z,91.59
2017-12-30T09:11:24.199Z,91.61
2017-12-30T09:12:30.962Z,91.60
2017-12-30T09:13:37.728Z,91.66
2017-12-30T09:14:44.460Z,91.69
2017-12-30T09:15:51.291Z,91.75
2017-12-30T09:16:58.044Z,91.74
2017-12-30T09:18:04.793Z,91.79
2017-12-30T09:19:11.545Z,91.81
2017-12-30T09:20:18.316Z,91.81
2017-12-30T09:21:25.052Z,91.83
2017-12-30T09:22:31.892Z,91.86
2017-12-30T09:23:38.609Z,91.89
2017-12-30T09:24:45.366Z,91.90
2017-12-30T09:25:52.076Z,91.90
2017-12-30T09:26:58.831Z,91.94
2017-12-30T09:28:05.557Z,91.96
2017-12-30T09:29:12.429Z,91.95
2017-12-30T09:30:19.211Z,91.97
2017-12-30T09:31:25.940Z,92.01
2017-12-30T09:32:32.711Z,92.02
2017-12-30T09:33:40.403Z,92.04
2017-12-30T09:34:46.613Z,92.04
2017-12-30T09:35:53.315Z,92.09
2017-12-30T09:37:00.039Z,92.09
2017-12-30T09:38:06.879Z,92.13
2017-12-30T09:39:13.688Z,92.18
2017-12-30T09:40:20.395Z,92.19
2017-12-30T09:41:27.104Z,92.21
2017-12-30T09:42:33.900Z,92.21
2017-12-30T09:43:40.640Z,92.26
2017-12-30T09:44:47.395Z,92.23
2017-12-30T09:45:54.095Z,92.26
2017-12-30T09:47:00.836Z,92.28
2017-12-30T09:48:07.543Z,92.27
2017-12-30T09:49:14.284Z,92.29
2017-12-30T09:50:21.005Z,92.28
2017-12-30T09:51:27.792Z,92.33
2017-12-30T09:52:34.476Z,92.33
2017-12-30T09:53:41.277Z,92.32
2017-12-30T09:54:48.002Z,92.33
2017-12-30T09:55:54.707Z,92.35
2017-12-30T09:57:01.532Z,92.36
2017-12-30T09:58:08.217Z,92.37
2017-12-30T09:59:15.049Z,92.38
2017-12-30T10:00:21.799Z,92.41
2017-12-30T10:01:28.489Z,92.41
2017-12-30T10:02:35.299Z,92.46
2017-12-30T10:03:42.004Z,92.45
2017-12-30T10:04:48.836Z,92.49
2017-12-30T10:05:55.582Z,92.50
2017-12-30T10:07:02.260Z,92.54
2017-12-30T10:08:09.068Z,92.53
2017-12-30T10:09:15.764Z,92.57
2017-12-30T10:10:22.481Z,92.57
2017-12-30T10:11:29.241Z,92.64
2017-12-30T10:12:35.954Z,92.63
2017-12-30T10:13:42.639Z,92.65
2017-12-30T10:14:49.500Z,92.67
2017-12-30T10:15:56.275Z,92.68
2017-12-30T10:17:03.037Z,92.72
2017-12-30T10:18:09.760Z,92.75
2017-12-30T10:19:16.604Z,92.78
2017-12-30T10:20:23.399Z,92.81
2017-12-30T10:21:30.141Z,92.85
2017-12-30T10:22:36.891Z,92.88
2017-12-30T10:23:43.717Z,92.91
2017-12-30T10:24:50.460Z,92.93
2017-12-30T10:25:57.240Z,92.96
2017-12-30T10:27:03.987Z,93.03
2017-12-30T10:28:10.801Z,93.06
2017-12-30T10:29:17.568Z,93.09
2017-12-30T10:30:24.332Z,93.12
2017-12-30T10:31:31.096Z,93.14
2017-12-30T10:32:37.888Z,93.16
2017-12-30T10:33:44.621Z,93.18
2017-12-30T10:34:51.401Z,93.23
2017-12-30T10:35:58.156Z,93.29
2017-12-30T10:37:05.047Z,93.30
2017-12-30T10:38:12.176Z,93.35
2017-12-30T10:39:18.928Z,93.37
2017-12-30T10:40:25.669Z,93.41
2017-12-30T10:41:32.444Z,93.44
2017-12-30T10:42:39.224Z,93.47
2017-12-30T10:43:45.985Z,93.54
2017-12-30T10:44:52.735Z,93.59
2017-12-30T10:45:59.665Z,93.64
2017-12-30T10:47:06.430Z,93.67
2017-12-30T10:48:13.204Z,93.69
2017-12-30T10:49:19.937Z,93.75
2017-12-30T10:50:26.767Z,93.81
2017-12-30T10:51:33.603Z,93.85
2017-12-30T10:52:40.596Z,93.91
2017-12-30T10:53:47.353Z,93.94
2017-12-30T10:54:54.108Z,94.00
2017-12-30T10:56:00.837Z,94.02
2017-12-30T10:57:07.817Z,94.07
2017-12-30T10:58:14.618Z,94.12
2017-12-30T10:59:21.468Z,94.16
2017-12-30T11:00:28.228Z,94.20
2017-12-30T11:01:35.112Z,94.23
2017-12-30T11:02:41.932Z,94.30
2017-12-30T11:03:48.682Z,94.36
2017-12-30T11:04:55.435Z,94.38
2017-12-30T11:06:02.168Z,94.44
2017-12-30T11:07:09.028Z,94.48
2017-12-30T11:08:15.815Z,94.50
2017-12-30T11:09:22.552Z,94.58
2017-12-30T11:10:29.305Z,94.62
2017-12-30T11:11:36.101Z,94.66
2017-12-30T11:12:42.844Z,94.70
2017-12-30T11:13:49.724Z,94.77
2017-12-30T11:14:56.541Z,94.81
2017-12-30T11:16:03.284Z,94.85
2017-12-30T11:17:10.050Z,94.90
2017-12-30T11:18:16.812Z,94.94
2017-12-30T11:19:23.653Z,94.98
2017-12-30T11:20:30.422Z,95.04
2017-12-30T11:21:37.168Z,95.06
2017-12-30T11:22:43.944Z,95.12
2017-12-30T11:23:50.851Z,95.16
2017-12-30T11:24:57.585Z,95.20
2017-12-30T11:26:04.340Z,95.23
2017-12-30T11:27:11.187Z,95.28
2017-12-30T11:28:17.933Z,95.32
2017-12-30T11:29:24.745Z,95.36
2017-12-30T11:30:31.463Z,95.39
2017-12-30T11:31:38.292Z,95.43
2017-12-30T11:32:45.060Z,95.50
2017-12-30T11:33:51.896Z,95.52
2017-12-30T11:34:59.000Z,95.56
2017-12-30T11:36:05.751Z,95.59
2017-12-30T11:37:12.565Z,95.63
2017-12-30T11:38:19.332Z,95.67
2017-12-30T11:39:26.130Z,95.74
2017-12-30T11:40:32.987Z,95.77
2017-12-30T11:41:39.803Z,95.83
2017-12-30T11:42:46.568Z,95.87
2017-12-30T11:43:53.426Z,95.89
2017-12-30T11:45:00.207Z,95.93
2017-12-30T11:46:06.983Z,95.97
2017-12-30T11:47:13.839Z,96.05
2017-12-30T11:48:20.607Z,96.08
2017-12-30T11:49:27.371Z,96.13
2017-12-30T11:50:34.129Z,96.17
2017-12-30T11:51:40.917Z,96.23
2017-12-30T11:52:47.691Z,96.25
2017-12-30T11:53:54.472Z,96.30
2017-12-30T11:55:01.389Z,96.34
2017-12-30T11:56:08.277Z,96.36
2017-12-30T11:57:15.147Z,96.41
2017-12-30T11:58:21.901Z,96.46
2017-12-30T11:59:28.651Z,96.49
2017-12-30T12:00:35.424Z,96.53
2017-12-30T12:01:42.220Z,96.55
2017-12-30T12:02:48.985Z,96.58
2017-12-30T12:03:55.728Z,96.63
2017-12-30T12:05:02.464Z,96.66
2017-12-30T12:06:09.330Z,96.70
2017-12-30T12:07:16.098Z,96.69
2017-12-30T12:08:22.848Z,96.72
2017-12-30T12:09:29.579Z,96.71
2017-12-30T12:10:36.382Z,96.74
2017-12-30T12:11:43.163Z,96.76
2017-12-30T12:12:49.975Z,96.79
2017-12-30T12:13:56.844Z,96.80
2017-12-30T12:15:03.687Z,96.83
2017-12-30T12:16:10.452Z,96.85
2017-12-30T12:17:17.232Z,96.88
2017-12-30T12:18:24.056Z,96.92
2017-12-30T12:19:30.861Z,96.93
2017-12-30T12:20:37.663Z,96.94
2017-12-30T12:21:44.452Z,96.96
2017-12-30T12:22:51.212Z,96.96
2017-12-30T12:23:57.947Z,97.02
2017-12-30T12:25:04.797Z,97.03
2017-12-30T12:26:11.544Z,97.06
2017-12-30T12:27:18.624Z,97.10
2017-12-30T12:28:25.383Z,97.12
2017-12-30T12:29:32.121Z,97.14
2017-12-30T12:30:38.979Z,97.17
2017-12-30T12:31:45.748Z,97.19
2017-12-30T12:32:52.536Z,97.20
2017-12-30T12:33:59.411Z,97.22
2017-12-30T12:35:06.185Z,97.23
2017-12-30T12:36:12.932Z,97.25
2017-12-30T12:37:19.724Z,97.29
2017-12-30T12:38:26.500Z,97.30
2017-12-30T12:39:33.236Z,97.32
2017-12-30T12:40:39.995Z,97.30
2017-12-30T12:41:46.771Z,97.30
2017-12-30T12:42:53.666Z,97.28
2017-12-30T12:44:00.556Z,97.31
2017-12-30T12:45:07.385Z,97.29
2017-12-30T12:46:14.143Z,97.30
2017-12-30T12:47:20.944Z,97.32
2017-12-30T12:48:27.808Z,97.33
2017-12-30T12:49:34.577Z,97.32
2017-12-30T12:50:41.379Z,97.35
2017-12-30T12:51:48.312Z,97.33
2017-12-30T12:52:55.088Z,97.33
2017-12-30T12:54:01.819Z,97.38
2017-12-30T12:55:08.672Z,97.38
2017-12-30T12:56:15.420Z,97.41
2017-12-30T12:57:22.193Z,97.40
2017-12-30T12:58:28.957Z,97.39
2017-12-30T12:59:35.707Z,97.41
2017-12-30T13:00:42.419Z,97.40
2017-12-30T13:01:49.169Z,97.41
2017-12-30T13:02:55.935Z,97.44
2017-12-30T13:04:02.723Z,97.41
2017-12-30T13:05:09.452Z,97.43
2017-12-30T13:06:16.178Z,97.45
2017-12-30T13:07:22.940Z,97.43
2017-12-30T13:08:29.720Z,97.43
2017-12-30T13:09:36.512Z,97.46
2017-12-30T13:10:43.233Z,97.46
2017-12-30T13:11:50.055Z,97.47
2017-12-30T13:12:56.781Z,97.46
2017-12-30T13:14:03.596Z,97.44
2017-12-30T13:15:10.377Z,97.45
2017-12-30T13:16:17.143Z,97.48
2017-12-30T13:17:23.884Z,97.48
2017-12-30T13:18:30.671Z,97.48
2017-12-30T13:19:37.408Z,97.47
2017-12-30T13:20:44.224Z,97.47
2017-12-30T13:21:51.020Z,97.48
2017-12-30T13:22:57.937Z,97.47
2017-12-30T13:24:04.707Z,97.46
2017-12-30T13:25:11.509Z,97.45
2017-12-30T13:26:18.282Z,97.45
2017-12-30T13:27:25.115Z,97.45
2017-12-30T13:28:32.011Z,97.46
2017-12-30T13:29:38.743Z,97.45
2017-12-30T13:30:45.515Z,97.46
2017-12-30T13:31:52.261Z,97.46
2017-12-30T13:32:59.199Z,97.44
2017-12-30T13:34:06.196Z,97.46
2017-12-30T13:35:12.958Z,97.45
2017-12-30T13:36:19.859Z,97.43
2017-12-30T13:37:26.686Z,97.45
2017-12-30T13:38:33.473Z,97.43
2017-12-30T13:39:40.317Z,97.44
2017-12-30T13:40:47.048Z,97.43
2017-12-30T13:41:53.871Z,97.43
2017-12-30T13:43:01.292Z,97.43
2017-12-30T13:44:07.752Z,97.41
2017-12-30T13:45:14.512Z,97.40
2017-12-30T13:46:21.261Z,97.40
2017-12-30T13:47:27.979Z,97.38
2017-12-30T13:48:34.744Z,97.40
2017-12-30T13:49:41.500Z,97.39
2017-12-30T13:50:48.352Z,97.36
2017-12-30T13:51:55.093Z,97.34
2017-12-30T13:53:01.836Z,97.35
2017-12-30T13:54:08.620Z,97.30
2017-12-30T13:55:16.225Z,97.30
2017-12-30T13:56:22.215Z,97.30
2017-12-30T13:57:29.071Z,97.31
2017-12-30T13:58:35.856Z,97.28
2017-12-30T13:59:42.719Z,97.27
2017-12-30T14:00:49.444Z,97.24
2017-12-30T14:01:56.131Z,97.25
2017-12-30T14:03:02.913Z,97.25
2017-12-30T14:04:09.607Z,97.22
2017-12-30T14:05:16.320Z,97.20
2017-12-30T14:06:23.033Z,97.18
2017-12-30T14:07:29.748Z,97.16
2017-12-30T14:08:36.547Z,97.18
2017-12-30T14:09:43.305Z,97.15
2017-12-30T14:10:50.006Z,97.15
2017-12-30T14:11:56.735Z,97.16
2017-12-30T14:13:03.437Z,97.13
2017-12-30T14:14:10.164Z,97.09
2017-12-30T14:15:16.877Z,97.09
2017-12-30T14:16:23.679Z,97.06
2017-12-30T14:17:30.390Z,97.07
2017-12-30T14:18:37.084Z,97.03
2017-12-30T14:19:43.795Z,97.01